createdAt,value
2022-08-22T00:00:09.863Z,1.85
2022-08-22T00:02:44.176Z,1.40
2022-08-22T00:03:01.689Z,1.58
2022-08-22T00:03:18.524Z,1.80
2022-08-22T00:06:13.873Z,1.70
2022-08-22T00:09:11.639Z,1.38
2022-08-22T00:12:29.619Z,1.67
2022-08-22T00:14:59.905Z,1.80
2022-08-22T00:17:35.837Z,1.50
2022-08-22T00:20:33.649Z,1.30
2022-08-22T00:23:15.789Z,1.58
2022-08-22T00:25:52.516Z,1.40
2022-08-22T00:28:22.045Z,1.40
2022-08-22T00:31:11.101Z,1.60
2022-08-22T00:33:55.765Z,1.58
2022-08-22T00:36:43.549Z,1.40
2022-08-22T00:39:40.624Z,1.40
2022-08-22T00:42:44.416Z,1.63
2022-08-22T00:45:35.752Z,1.58
2022-08-22T00:48:05.822Z,1.30
2022-08-22T00:50:35.885Z,1.63
2022-08-22T00:53:41.887Z,1.63
2022-08-22T00:56:33.325Z,1.48
2022-08-22T00:59:22.924Z,1.70
2022-08-22T01:02:10.760Z,1.73
2022-08-22T01:05:02.725Z,2.40
2022-08-22T01:07:57.711Z,1.80
2022-08-22T01:10:27.847Z,1.83
2022-08-22T01:13:13.469Z,1.88
2022-08-22T01:15:42.614Z,1.80
2022-08-22T01:18:35.300Z,1.50
2022-08-22T01:21:14.162Z,1.70
2022-08-22T01:24:24.211Z,1.60
2022-08-22T01:26:59.948Z,1.50
2022-08-22T01:29:51.561Z,1.60
2022-08-22T01:32:39.920Z,1.58
2022-08-22T01:35:18.926Z,1.88
2022-08-22T01:38:27.159Z,1.80
2022-08-22T01:41:22.568Z,2.20
2022-08-22T01:44:13.773Z,1.77
2022-08-22T01:47:07.403Z,2.00
2022-08-22T01:49:34.368Z,1.50
2022-08-22T01:52:13.378Z,2.00
2022-08-22T01:55:06.160Z,1.92
2022-08-22T01:57:48.049Z,1.83
2022-08-22T02:00:20.197Z,2.08
2022-08-22T02:03:30.593Z,1.75
2022-08-22T02:06:07.346Z,1.95
2022-08-22T02:08:46.943Z,1.75
2022-08-22T02:11:33.876Z,1.48
2022-08-22T02:14:27.326Z,2.00
2022-08-22T02:17:13.484Z,2.10
2022-08-22T02:20:06.731Z,1.73
2022-08-22T02:22:53.356Z,2.42
2022-08-22T02:25:42.254Z,1.90
2022-08-22T02:28:16.059Z,1.95
2022-08-22T02:30:43.016Z,1.98
2022-08-22T02:33:21.423Z,1.77
2022-08-22T02:36:03.281Z,1.75
2022-08-22T02:38:49.285Z,2.20
2022-08-22T02:41:29.168Z,3.25
2022-08-22T02:44:15.840Z,1.70
2022-08-22T02:47:02.569Z,1.85
2022-08-22T02:49:45.358Z,1.60
2022-08-22T02:52:25.181Z,1.70
2022-08-22T02:55:11.844Z,2.17
2022-08-22T02:58:00.499Z,1.73
2022-08-22T03:00:42.177Z,1.80
2022-08-22T03:03:28.887Z,1.90
2022-08-22T03:06:43.781Z,1.70
2022-08-22T03:09:16.492Z,1.52
2022-08-22T03:11:52.492Z,1.90
2022-08-22T03:14:34.481Z,1.23
2022-08-22T03:17:01.454Z,1.42
2022-08-22T03:20:00.382Z,1.75
2022-08-22T03:22:30.466Z,1.65
2022-08-22T03:25:08.325Z,1.42
2022-08-22T03:27:48.305Z,1.27
2022-08-22T03:30:22.601Z,1.33
2022-08-22T03:33:02.208Z,1.45
2022-08-22T03:35:51.235Z,1.40
2022-08-22T03:38:24.366Z,1.23
2022-08-22T03:41:12.858Z,1.38
2022-08-22T03:43:51.832Z,1.30
2022-08-22T03:46:56.404Z,1.30
2022-08-22T03:53:05.664Z,1.30
2022-08-22T03:55:41.529Z,1.50
2022-08-22T03:58:33.178Z,1.50
2022-08-22T04:01:24.991Z,1.15
2022-08-22T04:04:10.776Z,1.17
2022-08-22T04:06:59.784Z,1.10
2022-08-22T04:09:55.172Z,1.40
2022-08-22T04:12:45.858Z,1.35
2022-08-22T04:15:47.856Z,1.40
2022-08-22T04:18:29.569Z,1.30
2022-08-22T04:21:42.219Z,1.35
2022-08-22T04:24:22.345Z,1.30
2022-08-22T04:26:55.389Z,1.20
2022-08-22T04:29:28.620Z,1.50
2022-08-22T04:32:30.687Z,1.13
2022-08-22T04:35:16.956Z,1.60
2022-08-22T04:37:59.340Z,1.55
2022-08-22T04:40:37.350Z,1.20
2022-08-22T04:43:12.515Z,1.30
2022-08-22T04:45:59.409Z,1.65
2022-08-22T04:48:36.159Z,1.52
2022-08-22T04:51:15.275Z,1.30
2022-08-22T04:53:48.315Z,1.25
2022-08-22T04:56:30.776Z,1.50
2022-08-22T04:59:07.883Z,1.40
2022-08-22T05:01:46.842Z,1.35
2022-08-22T05:04:21.710Z,1.55
2022-08-22T05:06:53.741Z,1.42
2022-08-22T05:09:27.252Z,1.20
2022-08-22T05:11:58.149Z,1.40
2022-08-22T05:14:54.406Z,1.38
2022-08-22T05:17:26.788Z,1.23
2022-08-22T05:20:02.702Z,1.45
2022-08-22T05:22:33.212Z,1.60
2022-08-22T05:25:13.504Z,1.20
2022-08-22T05:27:45.414Z,1.45
2022-08-22T05:30:21.069Z,1.67
2022-08-22T05:33:03.829Z,1.63
2022-08-22T05:35:43.916Z,1.30
2022-08-22T05:38:18.726Z,1.63
2022-08-22T05:40:53.862Z,1.60
2022-08-22T05:43:23.180Z,1.38
2022-08-22T05:45:50.515Z,1.35
2022-08-22T05:48:25.358Z,1.38
2022-08-22T05:51:01.135Z,1.60
2022-08-22T05:53:33.688Z,1.38
2022-08-22T05:56:22.447Z,1.57
2022-08-22T05:59:00.183Z,1.40
2022-08-22T06:01:31.275Z,1.23
2022-08-22T06:04:31.448Z,1.60
2022-08-22T06:07:10.012Z,1.48
2022-08-22T06:09:47.663Z,1.40
2022-08-22T06:12:29.879Z,1.60
2022-08-22T06:15:11.820Z,1.63
2022-08-22T06:17:47.344Z,1.33
2022-08-22T06:20:22.265Z,1.50
2022-08-22T06:22:54.027Z,1.10
2022-08-22T06:25:35.082Z,1.40
2022-08-22T06:28:07.553Z,1.40
2022-08-22T06:30:36.792Z,1.57
2022-08-22T06:33:12.519Z,1.33
2022-08-22T06:36:06.784Z,1.27
2022-08-22T06:39:28.265Z,1.20
2022-08-22T06:42:05.867Z,1.23
2022-08-22T06:44:40.292Z,1.50
2022-08-22T06:47:16.348Z,1.33
2022-08-22T06:49:45.745Z,1.80
2022-08-22T06:52:20.376Z,1.60
2022-08-22T06:54:51.636Z,1.63
2022-08-22T06:57:36.178Z,1.77
2022-08-22T07:00:10.119Z,1.88
2022-08-22T07:02:42.735Z,1.45
2022-08-22T07:05:19.022Z,1.52
2022-08-22T07:07:46.537Z,1.77
2022-08-22T07:10:15.147Z,3.35
2022-08-22T07:12:50.915Z,3.33
2022-08-22T07:15:36.585Z,1.70
2022-08-22T07:18:08.639Z,1.45
2022-08-22T07:20:45.184Z,1.50
2022-08-22T07:23:40.407Z,1.33
2022-08-22T07:26:26.837Z,1.60
2022-08-22T07:29:01.467Z,1.15
2022-08-22T07:31:39.440Z,1.45
2022-08-22T07:34:19.981Z,1.75
2022-08-22T07:37:08.007Z,1.30
2022-08-22T07:39:41.285Z,1.30
2022-08-22T07:42:28.556Z,1.00
2022-08-22T07:45:43.270Z,1.00
2022-08-22T07:48:10.199Z,1.88
2022-08-22T07:51:08.699Z,1.02
2022-08-22T07:53:46.387Z,1.20
2022-08-22T07:56:23.648Z,1.08
2022-08-22T07:58:56.552Z,1.10
2022-08-22T08:03:56.109Z,1.20
2022-08-22T08:06:25.247Z,0.95
2022-08-22T08:08:53.704Z,0.95
2022-08-22T08:11:23.087Z,1.20
2022-08-22T08:13:54.426Z,1.20
2022-08-22T08:16:30.812Z,1.02
2022-08-22T08:19:00.914Z,1.00
2022-08-22T08:21:33.808Z,1.20
2022-08-22T08:26:38.222Z,1.50
2022-08-22T08:29:07.578Z,1.30
2022-08-22T08:31:43.019Z,1.15
2022-08-22T08:34:19.411Z,1.20
2022-08-22T08:37:13.827Z,1.55
2022-08-22T08:39:53.636Z,1.42
2022-08-22T08:42:26.584Z,1.27
2022-08-22T08:45:18.493Z,1.42
2022-08-22T08:48:17.159Z,1.13
2022-08-22T08:50:46.925Z,1.30
2022-08-22T08:53:38.969Z,1.80
2022-08-22T08:56:32.061Z,1.15
2022-08-22T08:59:10.005Z,1.30
2022-08-22T09:02:01.052Z,1.35
2022-08-22T09:04:43.310Z,1.60
2022-08-22T09:08:11.804Z,1.67
2022-08-22T09:10:53.919Z,1.30
2022-08-22T09:13:50.164Z,1.40
2022-08-22T09:16:46.219Z,1.48
2022-08-22T09:19:52.020Z,1.23
2022-08-22T09:22:46.274Z,1.50
2022-08-22T09:25:39.871Z,1.35
2022-08-22T09:28:19.955Z,1.42
2022-08-22T09:31:17.089Z,1.35
2022-08-22T09:34:23.894Z,1.55
2022-08-22T09:37:16.517Z,1.40
2022-08-22T09:39:57.391Z,1.50
2022-08-22T09:43:03.177Z,1.73
2022-08-22T09:45:57.732Z,1.30
2022-08-22T09:49:07.046Z,1.50
2022-08-22T09:51:45.102Z,1.40
2022-08-22T09:54:31.256Z,1.48
2022-08-22T09:57:16.321Z,1.50
2022-08-22T09:59:44.005Z,1.58
2022-08-22T10:02:26.448Z,1.40
2022-08-22T10:05:39.475Z,1.38
2022-08-22T10:08:14.054Z,1.50
2022-08-22T10:11:23.845Z,1.40
2022-08-22T10:14:06.932Z,1.60
2022-08-22T10:17:07.447Z,1.65
2022-08-22T10:19:46.920Z,1.50
2022-08-22T10:22:35.756Z,1.30
2022-08-22T10:25:22.523Z,1.40
2022-08-22T10:28:10.330Z,1.50
2022-08-22T10:31:16.632Z,1.80
2022-08-22T10:33:53.483Z,1.55
2022-08-22T10:36:32.670Z,1.67
2022-08-22T10:39:02.049Z,1.67
2022-08-22T10:41:45.503Z,1.30
2022-08-22T10:44:28.101Z,1.77
2022-08-22T10:47:08.768Z,1.73
2022-08-22T10:49:51.231Z,1.60
2022-08-22T10:52:45.911Z,1.50
2022-08-22T10:55:20.634Z,1.48
2022-08-22T10:58:11.564Z,1.50
2022-08-22T11:00:56.595Z,2.15
2022-08-22T11:03:48.414Z,1.58
2022-08-22T11:06:38.878Z,1.90
2022-08-22T11:09:17.902Z,1.50
2022-08-22T11:12:03.065Z,1.60
2022-08-22T11:15:05.564Z,1.45
2022-08-22T11:17:53.796Z,1.42
2022-08-22T11:20:52.365Z,1.77
2022-08-22T11:23:48.372Z,1.40
2022-08-22T11:26:38.233Z,1.50
2022-08-22T11:29:25.667Z,1.90
2022-08-22T11:32:07.666Z,1.67
2022-08-22T11:34:44.726Z,1.60
2022-08-22T11:37:40.300Z,1.70
2022-08-22T11:40:41.454Z,1.90
2022-08-22T11:43:18.525Z,1.50
2022-08-22T11:45:49.355Z,1.60
2022-08-22T11:48:19.380Z,1.70
2022-08-22T11:50:55.920Z,1.65
2022-08-22T11:53:47.531Z,1.60
2022-08-22T11:56:34.549Z,1.75
2022-08-22T11:59:14.118Z,1.50
2022-08-22T12:02:33.209Z,1.80
2022-08-22T12:05:10.860Z,1.90
2022-08-22T12:08:03.622Z,1.60
2022-08-22T12:10:36.138Z,1.60
2022-08-22T12:15:58.359Z,1.63
2022-08-22T12:18:53.058Z,1.73
2022-08-22T12:21:26.121Z,1.92
2022-08-22T12:24:31.198Z,1.95
2022-08-22T12:27:08.265Z,1.52
2022-08-22T12:29:49.331Z,1.80
2022-08-22T12:33:01.825Z,1.70
2022-08-22T12:35:49.808Z,1.90
2022-08-22T12:38:31.305Z,1.60
2022-08-22T12:41:35.117Z,1.75
2022-08-22T12:44:24.421Z,1.63
2022-08-22T12:46:55.453Z,1.80
2022-08-22T12:49:31.827Z,1.75
2022-08-22T12:52:17.572Z,1.80
2022-08-22T12:54:53.855Z,1.27
2022-08-22T12:57:34.824Z,1.33
2022-08-22T13:00:29.460Z,1.50
2022-08-22T13:03:00.922Z,2.08
2022-08-22T13:05:30.829Z,1.40
2022-08-22T13:08:22.318Z,1.80
2022-08-22T13:11:02.157Z,1.70
2022-08-22T13:13:36.906Z,1.90
2022-08-22T13:16:13.010Z,1.80
2022-08-22T13:18:47.577Z,1.70
2022-08-22T13:21:31.574Z,1.80
2022-08-22T13:24:16.696Z,1.70
2022-08-22T13:26:54.240Z,2.28
2022-08-22T13:29:39.333Z,1.70
2022-08-22T13:32:31.438Z,1.80
2022-08-22T13:35:00.555Z,1.58
2022-08-22T13:37:44.385Z,1.55
2022-08-22T13:40:21.607Z,1.55
2022-08-22T13:42:54.074Z,1.52
2022-08-22T13:45:27.983Z,1.58
2022-08-22T13:47:59.716Z,1.50
2022-08-22T13:50:37.095Z,1.90
2022-08-22T13:53:43.262Z,1.40
2022-08-22T13:56:24.191Z,1.35
2022-08-22T13:59:03.351Z,1.88
2022-08-22T14:01:40.019Z,1.35
2022-08-22T14:04:17.746Z,1.58
2022-08-22T14:07:04.762Z,1.83
2022-08-22T14:10:15.024Z,1.65
2022-08-22T14:12:51.261Z,1.70
2022-08-22T14:15:25.012Z,1.63
2022-08-22T14:17:58.446Z,1.42
2022-08-22T14:20:33.636Z,1.55
2022-08-22T14:23:27.066Z,1.60
2022-08-22T14:25:55.595Z,1.40
2022-08-22T14:28:35.583Z,1.58
2022-08-22T14:31:14.426Z,1.73
2022-08-22T14:33:55.295Z,1.73
2022-08-22T14:36:29.411Z,1.88
2022-08-22T14:39:12.049Z,1.58
2022-08-22T14:41:55.666Z,1.67
2022-08-22T14:44:36.814Z,1.55
2022-08-22T14:47:30.358Z,1.60
2022-08-22T14:50:00.992Z,1.58
2022-08-22T14:52:45.020Z,1.80
2022-08-22T14:55:17.150Z,1.60
2022-08-22T14:57:50.178Z,1.93
2022-08-22T15:00:38.132Z,1.73
2022-08-22T15:03:12.767Z,1.70
2022-08-22T15:05:54.167Z,1.55
2022-08-22T15:08:24.757Z,1.80
2022-08-22T15:11:15.157Z,1.70
2022-08-22T15:14:07.307Z,1.52
2022-08-22T15:16:46.429Z,1.50
2022-08-22T15:19:22.959Z,1.50
2022-08-22T15:21:51.200Z,1.70
2022-08-22T15:24:19.513Z,1.55
2022-08-22T15:26:56.284Z,1.50
2022-08-22T15:29:31.172Z,1.50
2022-08-22T15:32:02.512Z,1.42
2022-08-22T15:34:36.311Z,1.27
2022-08-22T15:37:09.807Z,1.30
2022-08-22T15:39:57.675Z,1.25
2022-08-22T15:42:34.653Z,1.40
2022-08-22T15:45:02.885Z,1.70
2022-08-22T15:47:39.788Z,1.42
2022-08-22T15:50:15.264Z,1.48
2022-08-22T15:52:59.802Z,1.70
2022-08-22T15:55:34.420Z,1.50
2022-08-22T15:58:20.679Z,1.27
2022-08-22T16:01:18.828Z,1.38
2022-08-22T16:04:06.700Z,1.40
2022-08-22T16:06:51.051Z,1.33
2022-08-22T16:09:39.143Z,1.58
2022-08-22T16:12:25.145Z,1.13
2022-08-22T16:14:53.408Z,1.40
2022-08-22T16:17:43.043Z,1.50
2022-08-22T16:20:19.686Z,1.42
2022-08-22T16:22:59.070Z,1.30
2022-08-22T16:25:44.630Z,1.40
2022-08-22T16:28:41.476Z,1.40
2022-08-22T16:31:37.736Z,1.50
2022-08-22T16:34:17.091Z,1.40
2022-08-22T16:37:08.871Z,1.48
2022-08-22T16:39:39.836Z,1.55
2022-08-22T16:42:13.067Z,1.48
2022-08-22T16:47:36.900Z,1.58
2022-08-22T16:50:16.628Z,1.60
2022-08-22T16:53:05.675Z,3.17
2022-08-22T16:55:35.959Z,3.03
2022-08-22T16:58:19.820Z,1.92
2022-08-22T17:01:20.877Z,3.05
2022-08-22T17:03:47.973Z,1.90
2022-08-22T17:06:36.873Z,3.50
2022-08-22T17:09:34.987Z,2.85
2022-08-22T17:12:19.980Z,2.58
2022-08-22T17:14:53.915Z,2.90
2022-08-22T17:17:40.077Z,2.45
2022-08-22T17:20:34.432Z,3.88
2022-08-22T17:23:34.941Z,4.82
2022-08-22T17:26:28.525Z,3.42
2022-08-22T17:29:14.221Z,4.22
2022-08-22T17:31:55.008Z,3.20
2022-08-22T17:34:56.196Z,1.60
2022-08-22T17:37:42.218Z,1.60
2022-08-22T17:40:26.789Z,1.52
2022-08-22T17:43:09.489Z,2.00
2022-08-22T17:45:39.580Z,1.60
2022-08-22T17:48:18.348Z,1.40
2022-08-22T17:51:00.324Z,1.55
2022-08-22T17:54:01.385Z,1.95
2022-08-22T17:56:50.173Z,2.25
2022-08-22T18:00:02.149Z,2.10
2022-08-22T18:02:42.814Z,1.90
2022-08-22T18:05:31.200Z,1.65
2022-08-22T18:08:37.593Z,1.95
2022-08-22T18:11:40.530Z,1.80
2022-08-22T18:14:22.242Z,1.75
2022-08-22T18:16:53.016Z,2.75
2022-08-22T18:19:38.421Z,1.75
2022-08-22T18:22:08.261Z,2.35
2022-08-22T18:24:44.015Z,2.28
2022-08-22T18:27:46.031Z,1.85
2022-08-22T18:30:21.031Z,2.60
2022-08-22T18:33:07.265Z,1.70
2022-08-22T18:36:04.037Z,1.50
2022-08-22T18:38:51.807Z,2.10
2022-08-22T18:41:42.947Z,1.85
2022-08-22T18:44:24.542Z,1.70
2022-08-22T18:46:54.701Z,1.73
2022-08-22T18:49:24.552Z,2.08
2022-08-22T18:52:09.694Z,2.47
2022-08-22T18:54:42.862Z,1.90
2022-08-22T18:57:25.259Z,1.77
2022-08-22T19:00:01.668Z,2.00
2022-08-22T19:02:51.153Z,1.88
2022-08-22T19:05:39.104Z,1.95
2022-08-22T19:08:51.668Z,1.70
2022-08-22T19:11:37.186Z,1.60
2022-08-22T19:14:29.232Z,1.92
2022-08-22T19:17:30.210Z,2.00
2022-08-22T19:20:41.911Z,1.80
2022-08-22T19:23:33.812Z,1.60
2022-08-22T19:26:23.630Z,2.15
2022-08-22T19:28:56.294Z,1.75
2022-08-22T19:31:25.902Z,2.08
2022-08-22T19:34:17.720Z,2.17
2022-08-22T19:36:46.373Z,1.83
2022-08-22T19:39:41.861Z,1.67
2022-08-22T19:42:30.430Z,2.13
2022-08-22T19:45:09.473Z,2.20
2022-08-22T19:47:42.606Z,2.08
2022-08-22T19:50:25.585Z,1.77
2022-08-22T19:53:24.683Z,1.63
2022-08-22T19:56:03.627Z,1.77
2022-08-22T19:58:36.552Z,1.45
2022-08-22T20:01:37.280Z,1.80
2022-08-22T20:04:41.357Z,1.92
2022-08-22T20:08:13.059Z,2.13
2022-08-22T20:11:04.256Z,2.03
2022-08-22T20:13:34.857Z,1.95
2022-08-22T20:16:23.509Z,2.10
2022-08-22T20:19:06.528Z,1.75
2022-08-22T20:22:00.646Z,1.70
2022-08-22T20:24:46.691Z,1.73
2022-08-22T20:27:29.016Z,1.75
2022-08-22T20:30:12.194Z,1.92
2022-08-22T20:32:50.554Z,2.00
2022-08-22T20:35:26.975Z,1.90
2022-08-22T20:38:08.670Z,1.48
2022-08-22T20:41:02.160Z,1.80
2022-08-22T20:43:47.432Z,2.00
2022-08-22T20:46:35.644Z,1.70
2022-08-22T20:49:03.811Z,1.67
2022-08-22T20:51:33.487Z,1.55
2022-08-22T20:54:18.816Z,1.45
2022-08-22T20:56:53.572Z,1.50
2022-08-22T20:59:31.181Z,1.75
2022-08-22T21:02:18.441Z,2.00
2022-08-22T21:05:04.636Z,2.10
2022-08-22T21:07:31.690Z,1.73
2022-08-22T21:10:38.973Z,1.88
2022-08-22T21:13:06.041Z,1.83
2022-08-22T21:15:45.401Z,1.83
2022-08-22T21:18:27.898Z,1.65
2022-08-22T21:21:05.065Z,1.80
2022-08-22T21:23:37.716Z,1.83
2022-08-22T21:26:20.413Z,2.05
2022-08-22T21:29:12.993Z,2.03
2022-08-22T21:31:47.479Z,1.85
2022-08-22T21:34:19.805Z,2.95
2022-08-22T21:36:50.361Z,1.88
2022-08-22T21:39:26.802Z,1.50
2022-08-22T21:41:59.803Z,2.00
2022-08-22T21:44:39.512Z,1.80
2022-08-22T21:47:30.644Z,2.08
2022-08-22T21:50:01.336Z,1.73
2022-08-22T21:52:33.780Z,3.50
2022-08-22T21:55:25.668Z,2.00
2022-08-22T21:58:06.120Z,1.83
2022-08-22T22:00:50.707Z,2.53
2022-08-22T22:03:30.110Z,1.92
2022-08-22T22:06:00.445Z,1.75
2022-08-22T22:08:29.751Z,1.75
2022-08-22T22:11:06.067Z,1.90
2022-08-22T22:13:35.461Z,1.50
2022-08-22T22:16:02.580Z,1.85
2022-08-22T22:18:32.767Z,1.88
2022-08-22T22:21:00.635Z,1.75
2022-08-22T22:23:28.140Z,1.48
2022-08-22T22:25:57.682Z,2.20
2022-08-22T22:28:40.011Z,2.25
2022-08-22T22:31:07.812Z,2.05
2022-08-22T22:33:42.251Z,1.70
2022-08-22T22:36:20.631Z,1.92
2022-08-22T22:38:51.557Z,1.85
2022-08-22T22:41:20.274Z,1.90
2022-08-22T22:43:47.363Z,2.10
2022-08-22T22:46:14.352Z,1.50
2022-08-22T22:48:41.334Z,1.85
2022-08-22T22:51:10.501Z,1.50
2022-08-22T22:53:42.633Z,1.65
2022-08-22T22:56:14.183Z,1.75
2022-08-22T22:58:43.420Z,2.05
2022-08-22T23:01:25.850Z,1.92
2022-08-22T23:03:55.670Z,1.90
2022-08-22T23:06:24.291Z,1.80
2022-08-22T23:08:51.911Z,1.92
2022-08-22T23:11:21.578Z,2.05
2022-08-22T23:13:49.553Z,1.92
2022-08-22T23:16:23.522Z,1.75
2022-08-22T23:18:50.736Z,1.75
2022-08-22T23:21:21.976Z,1.90
2022-08-22T23:23:49.910Z,1.92
2022-08-22T23:26:18.369Z,1.73
2022-08-22T23:28:45.650Z,1.95
2022-08-22T23:31:18.973Z,1.90
2022-08-22T23:33:46.491Z,1.60
2022-08-22T23:36:21.475Z,1.55
2022-08-22T23:38:50.282Z,1.65
2022-08-22T23:41:19.088Z,1.73
2022-08-22T23:43:48.777Z,1.75
2022-08-22T23:46:18.411Z,2.15
2022-08-22T23:48:45.586Z,2.10
2022-08-22T23:51:14.829Z,1.83
2022-08-22T23:53:43.045Z,2.03
2022-08-22T23:56:25.892Z,1.70
2022-08-22T23:58:53.431Z,1.90
